Time;durP1;ratioP1;P1;durP2;ratioP2;P2;SDS_P1;SDS_P2;PMS_P1;PMS_P2;Temp;Humidity;BMP_temperature;BMP_pressure;BME280_temperature;BME280_humidity;BME280_pressure;Samples;Min_cycle;Max_cycle;Signal;HPM_P1;HPM_P2
2022/10/29 00:04:15;;;;;;;;;;;;;;;;;;10368202;28;20024;-79
2022/10/29 00:09:16;;;;;;;;;;;;;;;;;;10354144;28;19975;-82
2022/10/29 00:14:17;;;;;;;;;;;;;;;;;;10366214;28;20344;-79
2022/10/29 00:19:17;;;;;;;;;;;;;;;;;;10366080;28;19968;-79
2022/10/29 00:24:17;;;;;;;;;;;;;;;;;;10358307;28;19922;-80
2022/10/29 00:29:18;;;;;;;;;;;;;;;;;;10363814;28;19921;-78
2022/10/29 00:34:18;;;;;;;;;;;;;;;;;;10360088;28;20014;-78
2022/10/29 00:39:19;;;;;;;;;;;;;;;;;;10362294;28;19933;-77
2022/10/29 00:44:20;;;;;;;;;;;;;;;;;;10357206;28;19929;-77
2022/10/29 00:49:20;;;;;;;;;;;;;;;;;;10357596;28;19917;-76
2022/10/29 00:54:21;;;;;;;;;;;;;;;;;;10350227;28;20389;-76
2022/10/29 00:59:22;;;;;;;;;;;;;;;;;;10377340;28;20016;-76
2022/10/29 01:04:22;;;;;;;;;;;;;;;;;;10368217;28;20365;-75
2022/10/29 01:09:23;;;;;;;;;;;;;;;;;;10363605;28;19964;-76
2022/10/29 01:14:24;;;;;;;;;;;;;;;;;;10366829;28;20016;-76
2022/10/29 01:19:24;;;;;;;;;;;;;;;;;;10364166;28;20005;-76
2022/10/29 01:24:25;;;;;;;;;;;;;;;;;;10376424;28;20868;-76
2022/10/29 01:29:28;;;;;;;;;;;;;;;;;;10357975;28;20000;-75
2022/10/29 01:34:28;;;;;;;;;;;;;;;;;;10365642;28;19925;-76
2022/10/29 01:39:28;;;;;;;;;;;;;;;;;;10360956;28;20407;-75
2022/10/29 01:44:29;;;;;;;;;;;;;;;;;;10324680;28;20024;-77
2022/10/29 01:49:30;;;;;;;;;;;;;;;;;;10364722;28;20369;-76
2022/10/29 01:54:30;;;;;;;;;;;;;;;;;;10357574;28;19975;-77
2022/10/29 01:59:31;;;;;;;;;;;;;;;;;;10359258;28;20029;-75
2022/10/29 02:04:31;;;;;;;;;;;;;;;;;;10366614;28;19922;-76
2022/10/29 02:09:33;;;;;;;;;;;;;;;;;;10349232;28;19921;-79
2022/10/29 02:14:33;;;;;;;;;;;;;;;;;;10372839;28;19929;-79
2022/10/29 02:19:33;;;;;;;;;;;;;;;;;;10356470;28;20393;-79
2022/10/29 02:24:35;;;;;;;;;;;;;;;;;;10367133;28;19944;-80
2022/10/29 02:29:36;;;;;;;;;;;;;;;;;;10355139;28;19925;-77
2022/10/29 02:34:37;;;;;;;;;;;;;;;;;;10364500;28;20336;-79
2022/10/29 02:39:37;;;;;;;;;;;;;;;;;;10366480;28;20025;-79
2022/10/29 02:44:37;;;;;;;;;;;;;;;;;;10363263;28;19925;-76
2022/10/29 02:49:37;;;;;;;;;;;;;;;;;;10362105;28;20021;-77
2022/10/29 02:54:41;;;;;;;;;;;;;;;;;;10366912;28;19929;-77
2022/10/29 02:59:42;;;;;;;;;;;;;;;;;;10362191;28;20463;-78
2022/10/29 03:04:44;;;;;;;;;;;;;;;;;;10377819;28;19925;-79
2022/10/29 03:09:44;;;;;;;;;;;;;;;;;;10390694;28;19921;-78
2022/10/29 03:14:44;;;;;;;;;;;;;;;;;;10390757;28;20366;-78
2022/10/29 03:19:44;;;;;;;;;;;;;;;;;;10372489;28;19984;-77
2022/10/29 03:24:45;;;;;;;;;;;;;;;;;;10375544;28;19944;-79
2022/10/29 03:29:45;;;;;;;;;;;;;;;;;;10374126;28;19921;-77
2022/10/29 03:34:45;;;;;;;;;;;;;;;;;;10381430;28;19932;-77
2022/10/29 03:39:46;;;;;;;;;;;;;;;;;;10374522;28;19918;-77
2022/10/29 03:44:46;;;;;;;;;;;;;;;;;;10372055;28;19928;-79
2022/10/29 03:49:46;;;;;;;;;;;;;;;;;;10381874;28;19921;-79
2022/10/29 03:54:46;;;;;;;;;;;;;;;;;;10411997;28;19984;-78
2022/10/29 03:59:47;;;;;;;;;;;;;;;;;;10410254;28;19928;-77
2022/10/29 04:04:47;;;;;;;;;;;;;;;;;;10367398;28;19925;-78
2022/10/29 04:09:47;;;;;;;;;;;;;;;;;;10369192;28;19944;-78
2022/10/29 04:14:48;;;;;;;;;;;;;;;;;;10385623;28;19926;-77
2022/10/29 04:19:48;;;;;;;;;;;;;;;;;;10373853;28;19925;-76
2022/10/29 04:24:49;;;;;;;;;;;;;;;;;;10387248;28;19941;-77
2022/10/29 04:29:49;;;;;;;;;;;;;;;;;;10377225;28;20325;-78
2022/10/29 04:34:50;;;;;;;;;;;;;;;;;;10382554;28;19968;-77
2022/10/29 04:39:50;;;;;;;;;;;;;;;;;;10383142;28;19922;-77
2022/10/29 04:44:50;;;;;;;;;;;;;;;;;;10390325;28;20012;-79
2022/10/29 04:49:50;;;;;;;;;;;;;;;;;;10385728;28;19917;-78
2022/10/29 04:54:51;;;;;;;;;;;;;;;;;;10398182;28;19925;-77
2022/10/29 04:59:51;;;;;;;;;;;;;;;;;;10398556;28;19925;-78
2022/10/29 05:04:51;;;;;;;;;;;;;;;;;;10393425;28;20013;-79
2022/10/29 05:09:51;;;;;;;;;;;;;;;;;;10374539;28;19921;-78
2022/10/29 05:14:52;;;;;;;;;;;;;;;;;;10385814;28;19949;-77
2022/10/29 05:19:52;;;;;;;;;;;;;;;;;;10381948;28;19975;-78
2022/10/29 05:24:52;;;;;;;;;;;;;;;;;;10379012;28;19928;-77
2022/10/29 05:29:53;;;;;;;;;;;;;;;;;;10396744;28;19918;-76
2022/10/29 05:34:54;;;;;;;;;;;;;;;;;;10379896;28;19922;-75
2022/10/29 05:39:54;;;;;;;;;;;;;;;;;;10385562;28;20385;-76
2022/10/29 05:44:55;;;;;;;;;;;;;;;;;;10380352;28;19963;-78
2022/10/29 05:49:56;;;;;;;;;;;;;;;;;;10385153;28;19933;-77
2022/10/29 05:54:56;;;;;;;;;;;;;;;;;;10382107;28;20003;-77
2022/10/29 05:59:57;;;;;;;;;;;;;;;;;;10370571;28;19925;-79
2022/10/29 06:04:58;;;;;;;;;;;;;;;;;;10371851;28;19952;-76
2022/10/29 06:09:58;;;;;;;;;;;;;;;;;;10374776;28;19928;-78
2022/10/29 06:14:58;;;;;;;;;;;;;;;;;;10377376;28;20691;-79
2022/10/29 06:19:58;;;;;;;;;;;;;;;;;;10376712;28;19917;-81
2022/10/29 06:25:00;;;;;;;;;;;;;;;;;;10374759;28;19928;-80
2022/10/29 06:30:00;;;;;;;;;;;;;;;;;;10367096;28;19918;-79
2022/10/29 06:35:01;;;;;;;;;;;;;;;;;;10368460;28;19925;-81
2022/10/29 06:40:02;;;;;;;;;;;;;;;;;;10371288;28;19921;-76
2022/10/29 06:45:03;;;;;;;;;;;;;;;;;;10369055;28;19949;-78
2022/10/29 06:50:03;;;;;;;;;;;;;;;;;;10369940;28;19929;-76
2022/10/29 06:55:03;;;;;;;;;;;;;;;;;;10368336;28;20386;-77
2022/10/29 07:00:05;;;;;;;;;;;;;;;;;;10366558;28;19930;-75
2022/10/29 07:05:05;;;;;;;;;;;;;;;;;;10368594;28;19929;-77
2022/10/29 07:10:05;;;;;;;;;;;;;;;;;;10380072;28;20233;-79
2022/10/29 07:15:05;;;;;;;;;;;;;;;;;;10374792;28;19929;-78
2022/10/29 07:20:06;;;;;;;;;;;;;;;;;;10373514;28;19921;-80
2022/10/29 07:25:08;;;;;;;;;;;;;;;;;;10377282;28;19928;-79
2022/10/29 07:30:11;;;;;;;;;;;;;;;;;;10380223;28;19972;-78
2022/10/29 07:35:12;;;;;;;;;;;;;;;;;;10385167;28;20408;-79
2022/10/29 07:40:12;;;;;;;;;;;;;;;;;;10376152;28;20364;-78
2022/10/29 07:45:12;;;;;;;;;;;;;;;;;;10389180;28;19960;-78
2022/10/29 07:50:13;;;;;;;;;;;;;;;;;;10385638;28;19953;-78
2022/10/29 07:55:13;;;;;;;;;;;;;;;;;;10388479;28;19932;-79
2022/10/29 08:00:14;;;;;;;;;;;;;;;;;;10378457;28;19925;-77
2022/10/29 08:05:14;;;;;;;;;;;;;;;;;;10380216;28;19964;-78
2022/10/29 08:10:14;;;;;;;;;;;;;;;;;;10396167;28;19936;-77
2022/10/29 08:15:14;;;;;;;;;;;;;;;;;;10432240;28;19935;-79
2022/10/29 08:20:15;;;;;;;;;;;;;;;;;;10391301;28;20453;-76
2022/10/29 08:25:16;;;;;;;;;;;;;;;;;;10368062;28;20009;-78
2022/10/29 08:30:16;;;;;;;;;;;;;;;;;;10378847;28;19924;-78
2022/10/29 08:35:18;;;;;;;;;;;;;;;;;;10371722;28;19979;-78
2022/10/29 08:40:19;;;;;;;;;;;;;;;;;;10381692;28;20677;-77
2022/10/29 08:45:20;;;;;;;;;;;;;;;;;;10380281;28;19924;-77
2022/10/29 08:50:21;;;;;;;;;;;;;;;;;;10384482;28;20377;-77
2022/10/29 08:55:23;;;;;;;;;;;;;;;;;;10380168;28;19925;-78
2022/10/29 09:00:24;;;;;;;;;;;;;;;;;;10384600;28;20372;-78
2022/10/29 09:05:24;;;;;;;;;;;;;;;;;;10380257;28;19933;-75
2022/10/29 09:10:25;;;;;;;;;;;;;;;;;;10395030;28;19921;-77
2022/10/29 09:15:25;;;;;;;;;;;;;;;;;;10381999;28;19928;-78
2022/10/29 09:20:26;;;;;;;;;;;;;;;;;;10376731;28;19928;-80
2022/10/29 09:25:29;;;;;;;;;;;;;;;;;;10398100;28;19967;-78
2022/10/29 09:30:31;;;;;;;;;;;;;;;;;;10377303;28;19963;-78
2022/10/29 09:35:31;;;;;;;;;;;;;;;;;;10397265;28;19952;-78
2022/10/29 09:40:31;;;;;;;;;;;;;;;;;;10384114;28;19921;-79
2022/10/29 09:45:31;;;;;;;;;;;;;;;;;;10383036;28;20435;-79
2022/10/29 09:50:32;;;;;;;;;;;;;;;;;;10371143;28;19922;-80
2022/10/29 09:55:33;;;;;;;;;;;;;;;;;;10387411;28;19929;-79
2022/10/29 10:00:33;;;;;;;;;;;;;;;;;;10371511;28;19917;-79
2022/10/29 10:05:36;;;;;;;;;;;;;;;;;;10379876;28;20395;-78
2022/10/29 10:10:36;;;;;;;;;;;;;;;;;;10396853;28;20031;-79
2022/10/29 10:15:38;;;;;;;;;;;;;;;;;;10384945;28;19933;-78
2022/10/29 10:20:38;;;;;;;;;;;;;;;;;;10389702;28;19928;-80
2022/10/29 10:25:40;;;;;;;;;;;;;;;;;;10404098;28;19975;-79
2022/10/29 10:30:41;;;;;;;;;;;;;;;;;;10385871;28;20359;-80
2022/10/29 10:35:42;;;;;;;;;;;;;;;;;;10381836;28;20338;-79
2022/10/29 10:40:42;;;;;;;;;;;;;;;;;;10385554;28;19953;-79
2022/10/29 10:45:42;;;;;;;;;;;;;;;;;;10377351;28;19921;-79
2022/10/29 10:50:42;;;;;;;;;;;;;;;;;;10396102;28;19921;-80
2022/10/29 10:55:44;;;;;;;;;;;;;;;;;;10382638;28;20364;-79
2022/10/29 11:00:44;;;;;;;;;;;;;;;;;;10392401;28;19945;-80
2022/10/29 11:05:45;;;;;;;;;;;;;;;;;;10418733;28;19922;-83
2022/10/29 11:10:48;;;;;;;;;;;;;;;;;;10410622;28;20385;-78
2022/10/29 11:15:48;;;;;;;;;;;;;;;;;;10393487;28;19926;-78
2022/10/29 11:20:48;;;;;;;;;;;;;;;;;;10385126;28;19922;-79
2022/10/29 11:25:50;;;;;;;;;;;;;;;;;;10379289;28;19926;-81
2022/10/29 11:30:50;;;;;;;;;;;;;;;;;;10381194;28;19971;-78
2022/10/29 11:35:50;;;;;;;;;;;;;;;;;;10376723;28;19921;-80
2022/10/29 11:40:51;;;;;;;;;;;;;;;;;;10378586;28;20028;-80
2022/10/29 11:45:51;;;;;;;;;;;;;;;;;;10377317;28;19922;-79
2022/10/29 11:50:53;;;;;;;;;;;;;;;;;;10379164;28;19941;-78
2022/10/29 11:55:54;;;;;;;;;;;;;;;;;;10375554;28;19933;-78
2022/10/29 12:00:54;;;;;;;;;;;;;;;;;;10376089;28;19925;-79
2022/10/29 12:05:54;;;;;;;;;;;;;;;;;;10375101;28;20300;-79
2022/10/29 12:10:54;;;;;;;;;;;;;;;;;;10377065;28;19929;-79
2022/10/29 12:15:55;;;;;;;;;;;;;;;;;;10374431;28;20071;-79
2022/10/29 12:20:58;;;;;;;;;;;;;;;;;;10383675;28;19917;-80
2022/10/29 12:25:58;;;;;;;;;;;;;;;;;;10388804;28;19976;-79
2022/10/29 12:31:00;;;;;;;;;;;;;;;;;;10398867;28;20024;-79
2022/10/29 12:36:00;;;;;;;;;;;;;;;;;;10407673;28;19999;-80
2022/10/29 12:41:00;;;;;;;;;;;;;;;;;;10364655;28;19975;-78
2022/10/29 12:46:01;;;;;;;;;;;;;;;;;;10390220;28;19967;-80
2022/10/29 12:51:02;;;;;;;;;;;;;;;;;;10389384;28;20365;-81
2022/10/29 12:56:02;;;;;;;;;;;;;;;;;;10386150;28;20442;-80
2022/10/29 13:01:02;;;;;;;;;;;;;;;;;;10400050;28;19926;-80
2022/10/29 13:06:04;;;;;;;;;;;;;;;;;;10369750;28;20317;-80
2022/10/29 13:11:04;;;;;;;;;;;;;;;;;;10373391;28;19925;-80
2022/10/29 13:16:04;;;;;;;;;;;;;;;;;;10376716;28;19930;-78
2022/10/29 13:21:05;;;;;;;;;;;;;;;;;;10391859;28;19921;-79
2022/10/29 13:26:05;;;;;;;;;;;;;;;;;;10385092;28;19928;-80
2022/10/29 13:31:05;;;;;;;;;;;;;;;;;;10395286;28;19972;-81
2022/10/29 13:36:05;;;;;;;;;;;;;;;;;;10390385;28;19972;-78
2022/10/29 13:41:07;;;;;;;;;;;;;;;;;;10400250;28;19921;-80
2022/10/29 13:46:07;;;;;;;;;;;;;;;;;;10397781;28;20667;-78
2022/10/29 13:51:07;;;;;;;;;;;;;;;;;;10384918;28;19957;-80
2022/10/29 13:56:07;;;;;;;;;;;;;;;;;;10392658;28;20334;-79
2022/10/29 14:01:08;;;;;;;;;;;;;;;;;;10384093;28;19917;-78
2022/10/29 14:06:10;;;;;;;;;;;;;;;;;;10392507;28;19972;-83
2022/10/29 14:11:11;;;;;;;;;;;;;;;;;;10384585;28;19991;-79
2022/10/29 14:16:14;;;;;;;;;;;;;;;;;;10383005;28;20313;-80
2022/10/29 14:21:14;;;;;;;;;;;;;;;;;;10404497;28;19918;-81
2022/10/29 14:26:15;;;;;;;;;;;;;;;;;;10387937;28;20384;-78
2022/10/29 14:31:15;;;;;;;;;;;;;;;;;;10403066;28;19918;-81
2022/10/29 14:36:15;;;;;;;;;;;;;;;;;;10393316;28;20671;-86
2022/10/29 14:41:16;;;;;;;;;;;;;;;;;;10381370;28;19959;-81
2022/10/29 14:46:17;;;;;;;;;;;;;;;;;;10410832;28;19964;-84
2022/10/29 14:51:17;;;;;;;;;;;;;;;;;;10450105;28;19928;-82
2022/10/29 15:01:49;;;;;;;;;;;;;;;;;;10687999;23;19917;-81
2022/10/29 15:06:49;;;;;;;;;;;;;;;;;;10392263;28;19953;-82
2022/10/29 15:11:49;;;;;;;;;;;;;;;;;;10385187;28;19945;-86
2022/10/29 15:16:49;;;;;;;;;;;;;;;;;;10390101;28;19922;-84
2022/10/29 15:21:50;;;;;;;;;;;;;;;;;;10355950;28;19960;-90
2022/10/29 15:26:50;;;;;;;;;;;;;;;;;;10347965;28;19929;-84
2022/10/29 15:31:52;;;;;;;;;;;;;;;;;;10555994;22;19933;-86
2022/10/29 15:36:52;;;;;;;;;;;;;;;;;;10365395;28;19930;-84
2022/10/29 15:41:53;;;;;;;;;;;;;;;;;;10362281;28;20657;-88
2022/10/29 15:46:57;;;;;;;;;;;;;;;;;;10355179;28;19918;-84
2022/10/29 15:51:57;;;;;;;;;;;;;;;;;;10358948;28;19921;-79
2022/10/29 15:56:58;;;;;;;;;;;;;;;;;;10410967;28;19948;-83
2022/10/29 16:01:58;;;;;;;;;;;;;;;;;;10412259;28;19928;-78
2022/10/29 16:06:58;;;;;;;;;;;;;;;;;;10381861;28;20329;-78
2022/10/29 16:11:58;;;;;;;;;;;;;;;;;;10387466;28;19925;-80
2022/10/29 16:16:59;;;;;;;;;;;;;;;;;;10380235;28;19974;-79
2022/10/29 16:21:59;;;;;;;;;;;;;;;;;;10385551;28;19917;-80
2022/10/29 16:27:00;;;;;;;;;;;;;;;;;;10390999;28;20369;-77
2022/10/29 16:32:00;;;;;;;;;;;;;;;;;;10385970;28;19918;-76
2022/10/29 16:37:00;;;;;;;;;;;;;;;;;;10389208;28;19925;-80
2022/10/29 16:42:01;;;;;;;;;;;;;;;;;;10379068;28;19921;-79
2022/10/29 16:47:02;;;;;;;;;;;;;;;;;;10389214;28;19949;-86
2022/10/29 16:52:02;;;;;;;;;;;;;;;;;;10424613;28;19929;-78
2022/10/29 16:57:02;;;;;;;;;;;;;;;;;;10399968;28;19940;-76
2022/10/29 17:02:03;;;;;;;;;;;;;;;;;;10392367;28;19925;-78
2022/10/29 17:07:03;;;;;;;;;;;;;;;;;;10388020;28;20299;-79
2022/10/29 17:12:03;;;;;;;;;;;;;;;;;;10412757;28;19921;-82
2022/10/29 17:17:09;;;;;;;;;;;;;;;;;;10400450;28;19999;-90
2022/10/29 17:22:15;;;;;;;;;;;;;;;;;;10464924;28;19949;-87
2022/10/29 17:27:30;;;;;;;;;;;;;;;;;;10454776;28;19921;-87
2022/10/29 17:37:45;;;;;;;;;;;;;;;;;;10380872;28;20202;-84
2022/10/29 17:43:08;;;;;;;;;;;;;;;;;;10371024;28;20350;-84
2022/10/29 17:48:08;;;;;;;;;;;;;;;;;;10341496;28;19925;-79
2022/10/29 17:53:09;;;;;;;;;;;;;;;;;;10360699;28;20013;-81
2022/10/29 17:58:09;;;;;;;;;;;;;;;;;;10363239;28;19960;-81
2022/10/29 18:03:09;;;;;;;;;;;;;;;;;;10341399;28;19925;-87
2022/10/29 18:08:10;;;;;;;;;;;;;;;;;;10313829;28;19964;-79
2022/10/29 18:13:10;;;;;;;;;;;;;;;;;;10318270;28;19918;-78
2022/10/29 18:18:11;;;;;;;;;;;;;;;;;;10320250;28;20025;-80
2022/10/29 18:23:11;;;;;;;;;;;;;;;;;;10320088;28;19922;-80
2022/10/29 18:28:11;;;;;;;;;;;;;;;;;;10321474;28;19922;-79
2022/10/29 18:33:11;;;;;;;;;;;;;;;;;;10312222;28;19922;-82
2022/10/29 18:38:18;;;;;;;;;;;;;;;;;;10317024;28;19930;-80
2022/10/29 18:43:18;;;;;;;;;;;;;;;;;;10298030;28;20219;-79
2022/10/29 18:48:18;;;;;;;;;;;;;;;;;;10317625;28;20008;-79
2022/10/29 18:53:19;;;;;;;;;;;;;;;;;;10315937;28;19922;-78
2022/10/29 18:58:21;;;;;;;;;;;;;;;;;;10314057;28;19961;-77
2022/10/29 19:03:21;;;;;;;;;;;;;;;;;;10317403;28;19922;-81
2022/10/29 19:08:21;;;;;;;;;;;;;;;;;;10315631;28;19918;-79
2022/10/29 19:13:21;;;;;;;;;;;;;;;;;;10316514;28;19973;-82
2022/10/29 19:18:22;;;;;;;;;;;;;;;;;;10319682;28;19930;-80
2022/10/29 19:23:22;;;;;;;;;;;;;;;;;;10322422;28;19980;-81
2022/10/29 19:28:22;;;;;;;;;;;;;;;;;;10318086;28;20005;-79
2022/10/29 19:33:22;;;;;;;;;;;;;;;;;;10333954;28;19922;-81
2022/10/29 19:38:24;;;;;;;;;;;;;;;;;;10344977;28;19936;-82
2022/10/29 19:43:24;;;;;;;;;;;;;;;;;;10353858;28;19918;-83
2022/10/29 19:48:25;;;;;;;;;;;;;;;;;;10328933;28;20019;-83
2022/10/29 19:53:25;;;;;;;;;;;;;;;;;;10320745;28;19922;-82
2022/10/29 19:58:25;;;;;;;;;;;;;;;;;;10326066;28;19926;-83
2022/10/29 20:03:25;;;;;;;;;;;;;;;;;;10325291;28;19921;-82
2022/10/29 20:08:27;;;;;;;;;;;;;;;;;;10324244;28;19926;-83
2022/10/29 20:13:27;;;;;;;;;;;;;;;;;;10324688;28;19922;-81
2022/10/29 20:18:27;;;;;;;;;;;;;;;;;;10321397;28;20020;-82
2022/10/29 20:23:28;;;;;;;;;;;;;;;;;;10328528;28;19937;-80
2022/10/29 20:28:29;;;;;;;;;;;;;;;;;;10314433;28;19922;-81
2022/10/29 20:33:31;;;;;;;;;;;;;;;;;;10325819;28;19980;-81
2022/10/29 20:38:31;;;;;;;;;;;;;;;;;;10325001;28;20012;-82
2022/10/29 20:43:31;;;;;;;;;;;;;;;;;;10309064;28;19925;-82
2022/10/29 20:48:34;;;;;;;;;;;;;;;;;;10311082;28;20403;-83
2022/10/29 20:53:35;;;;;;;;;;;;;;;;;;10308950;28;19922;-81
2022/10/29 20:58:36;;;;;;;;;;;;;;;;;;10319990;28;19925;-83
2022/10/29 21:03:37;;;;;;;;;;;;;;;;;;10294224;28;19933;-78
2022/10/29 21:08:37;;;;;;;;;;;;;;;;;;10313684;28;19926;-80
2022/10/29 21:13:37;;;;;;;;;;;;;;;;;;10306142;28;19926;-81
2022/10/29 21:18:37;;;;;;;;;;;;;;;;;;10312792;28;20004;-80
2022/10/29 21:23:38;;;;;;;;;;;;;;;;;;10272652;28;20279;-78
2022/10/29 21:28:39;;;;;;;;;;;;;;;;;;10306629;28;19922;-82
2022/10/29 21:33:40;;;;;;;;;;;;;;;;;;10298183;28;19918;-79
2022/10/29 21:38:40;;;;;;;;;;;;;;;;;;10311050;28;19956;-80
2022/10/29 21:43:40;;;;;;;;;;;;;;;;;;10310698;28;19953;-82
2022/10/29 21:48:40;;;;;;;;;;;;;;;;;;10305813;28;19921;-78
2022/10/29 21:53:41;;;;;;;;;;;;;;;;;;10323170;28;19929;-79
2022/10/29 21:58:41;;;;;;;;;;;;;;;;;;10295031;28;19940;-80
2022/10/29 22:03:42;;;;;;;;;;;;;;;;;;10341577;28;19902;-80
2022/10/29 22:08:43;;;;;;;;;;;;;;;;;;10364746;28;19977;-81
2022/10/29 22:13:43;;;;;;;;;;;;;;;;;;10322754;28;19987;-80
2022/10/29 22:18:45;;;;;;;;;;;;;;;;;;10306516;28;20401;-79
2022/10/29 22:23:45;;;;;;;;;;;;;;;;;;10327499;28;19928;-82
2022/10/29 22:28:48;;;;;;;;;;;;;;;;;;10347237;28;19919;-80
2022/10/29 22:33:49;;;;;;;;;;;;;;;;;;10319820;28;19922;-80
2022/10/29 22:38:50;;;;;;;;;;;;;;;;;;10322421;28;19933;-78
2022/10/29 22:43:50;;;;;;;;;;;;;;;;;;10295936;28;19930;-81
2022/10/29 22:48:51;;;;;;;;;;;;;;;;;;10306394;28;19926;-80
2022/10/29 22:53:51;;;;;;;;;;;;;;;;;;10288419;28;20301;-81
2022/10/29 22:58:51;;;;;;;;;;;;;;;;;;10297361;28;19918;-79
2022/10/29 23:03:51;;;;;;;;;;;;;;;;;;10309228;28;19918;-81
2022/10/29 23:08:52;;;;;;;;;;;;;;;;;;10310514;28;19922;-81
2022/10/29 23:13:53;;;;;;;;;;;;;;;;;;10309079;28;19922;-79
2022/10/29 23:18:54;;;;;;;;;;;;;;;;;;10284030;28;19941;-80
2022/10/29 23:23:56;;;;;;;;;;;;;;;;;;10301955;28;19918;-82
2022/10/29 23:28:56;;;;;;;;;;;;;;;;;;10306664;28;19933;-79
2022/10/29 23:33:57;;;;;;;;;;;;;;;;;;10300515;28;20378;-78
2022/10/29 23:38:57;;;;;;;;;;;;;;;;;;10289898;28;20000;-80
2022/10/29 23:43:58;;;;;;;;;;;;;;;;;;10296521;28;19918;-78
2022/10/29 23:48:59;;;;;;;;;;;;;;;;;;10306489;28;19922;-79
2022/10/29 23:53:59;;;;;;;;;;;;;;;;;;10298740;28;19922;-80
2022/10/29 23:59:00;;;;;;;;;;;;;;;;;;10304164;28;19968;-80
